Time;durP1;ratioP1;P1;durP2;ratioP2;P2;SDS_P1;SDS_P2;PMS_P1;PMS_P2;Temp;Humidity;BMP_temperature;BMP_pressure;BME280_temperature;BME280_humidity;BME280_pressure;Samples;Min_cycle;Max_cycle;Signal;HPM_P1;HPM_P2
2021/12/23 00:01:48;;;;;;;27.85;14.63;;;;;;;;;;5063177;28;20093;-82
2021/12/23 00:04:14;;;;;;;26.42;15.55;;;;;;;;;;5061923;28;20037;-79
2021/12/23 00:06:41;;;;;;;28.17;16.35;;;;;;;;;;5046015;28;20041;-80
2021/12/23 00:09:07;;;;;;;26.00;15.63;;;;;;;;;;5044289;28;20041;-80
2021/12/23 00:11:33;;;;;;;29.98;16.00;;;;;;;;;;5061389;28;20041;-82
2021/12/23 00:14:04;;;;;;;27.92;15.68;;;;;;;;;;5045827;28;20052;-81
2021/12/23 00:16:41;;;;;;;29.23;15.95;;;;;;;;;;5059843;28;20127;-81
2021/12/23 00:19:21;;;;;;;29.05;15.95;;;;;;;;;;5062185;28;20116;-79
2021/12/23 00:24:32;;;;;;;28.65;16.23;;;;;;;;;;5062042;28;20127;-82
2021/12/23 00:26:58;;;;;;;27.55;16.13;;;;;;;;;;5043427;28;20129;-80
2021/12/23 00:29:24;;;;;;;30.30;16.63;;;;;;;;;;5060752;28;20037;-81
2021/12/23 00:31:50;;;;;;;25.15;14.85;;;;;;;;;;5061964;28;20041;-80
2021/12/23 00:34:16;;;;;;;29.20;17.17;;;;;;;;;;5062694;28;20033;-81
2021/12/23 00:36:44;;;;;;;30.42;17.05;;;;;;;;;;5047286;28;20037;-79
2021/12/23 00:39:12;;;;;;;26.83;15.98;;;;;;;;;;5067914;28;20359;-81
2021/12/23 00:41:40;;;;;;;27.77;15.82;;;;;;;;;;5064513;28;20039;-79
2021/12/23 00:44:06;;;;;;;30.88;15.68;;;;;;;;;;5065261;28;20051;-79
2021/12/23 00:46:32;;;;;;;29.00;15.82;;;;;;;;;;5063057;28;20045;-81
2021/12/23 00:48:58;;;;;;;26.92;15.05;;;;;;;;;;5060269;28;20044;-79
2021/12/23 00:51:24;;;;;;;27.38;15.45;;;;;;;;;;5043915;28;20033;-81
2021/12/23 00:53:53;;;;;;;24.40;15.55;;;;;;;;;;5058225;28;20041;-81
2021/12/23 00:56:19;;;;;;;27.40;15.80;;;;;;;;;;5058952;28;20041;-81
2021/12/23 00:58:45;;;;;;;26.20;16.13;;;;;;;;;;5058929;28;20040;-81
2021/12/23 01:01:11;;;;;;;28.52;16.77;;;;;;;;;;5043113;28;20129;-79
2021/12/23 01:03:37;;;;;;;31.05;16.17;;;;;;;;;;5043608;28;20087;-80
2021/12/23 01:06:03;;;;;;;28.70;16.35;;;;;;;;;;5043262;28;20041;-79
2021/12/23 01:08:29;;;;;;;32.83;16.67;;;;;;;;;;5044751;28;20037;-79
2021/12/23 01:10:57;;;;;;;35.10;16.30;;;;;;;;;;5060179;28;20345;-79
2021/12/23 01:13:29;;;;;;;30.33;16.58;;;;;;;;;;5059342;28;20033;-80
2021/12/23 01:16:14;;;;;;;29.08;17.05;;;;;;;;;;5044151;28;20053;-79
2021/12/23 01:18:46;;;;;;;29.90;16.88;;;;;;;;;;5060206;28;20045;-82
2021/12/23 01:21:17;;;;;;;26.20;17.67;;;;;;;;;;5059853;28;20040;-82
2021/12/23 01:23:45;;;;;;;29.08;16.92;;;;;;;;;;5043109;28;20041;-79
2021/12/23 01:26:11;;;;;;;29.48;17.00;;;;;;;;;;5060990;28;20056;-79
2021/12/23 01:28:38;;;;;;;33.90;17.42;;;;;;;;;;5059222;28;20037;-80
2021/12/23 01:31:04;;;;;;;29.50;16.67;;;;;;;;;;5043060;28;20053;-79
2021/12/23 01:33:30;;;;;;;29.38;16.83;;;;;;;;;;5060672;28;20071;-79
2021/12/23 01:35:56;;;;;;;28.58;17.55;;;;;;;;;;5043270;28;20509;-79
2021/12/23 01:38:22;;;;;;;32.80;17.60;;;;;;;;;;5042818;28;20037;-81
2021/12/23 01:40:48;;;;;;;29.48;17.67;;;;;;;;;;5058961;28;20375;-79
2021/12/23 01:43:17;;;;;;;29.83;16.70;;;;;;;;;;5042781;28;20516;-79
2021/12/23 01:45:43;;;;;;;29.65;17.88;;;;;;;;;;5041648;28;20041;-80
2021/12/23 01:48:09;;;;;;;29.10;17.08;;;;;;;;;;5058262;28;20072;-82
2021/12/23 01:50:37;;;;;;;27.85;18.45;;;;;;;;;;5057576;28;20048;-81
2021/12/23 01:53:04;;;;;;;27.55;17.55;;;;;;;;;;5040246;28;20044;-78
2021/12/23 01:55:30;;;;;;;33.88;18.42;;;;;;;;;;5040440;28;20044;-78
2021/12/23 01:57:56;;;;;;;30.30;18.00;;;;;;;;;;5057507;28;20041;-79
2021/12/23 02:00:23;;;;;;;31.73;18.20;;;;;;;;;;5040355;28;20051;-78
2021/12/23 02:02:50;;;;;;;30.77;17.80;;;;;;;;;;5077657;28;20072;-81
2021/12/23 02:05:16;;;;;;;32.08;18.15;;;;;;;;;;5060470;28;20041;-81
2021/12/23 02:07:42;;;;;;;31.27;18.42;;;;;;;;;;5060601;28;20063;-81
2021/12/23 02:10:09;;;;;;;32.15;18.23;;;;;;;;;;5044752;28;20064;-80
2021/12/23 02:12:35;;;;;;;36.08;18.85;;;;;;;;;;5045504;28;20044;-79
2021/12/23 02:15:01;;;;;;;33.75;19.20;;;;;;;;;;5060492;28;20044;-82
2021/12/23 02:17:27;;;;;;;31.90;19.50;;;;;;;;;;5045185;28;20494;-79
2021/12/23 02:19:54;;;;;;;34.42;19.80;;;;;;;;;;5045689;28;20024;-81
2021/12/23 02:22:20;;;;;;;38.55;19.42;;;;;;;;;;5043373;28;20044;-81
2021/12/23 02:24:46;;;;;;;31.73;18.90;;;;;;;;;;5061634;28;20448;-79
2021/12/23 02:27:12;;;;;;;33.60;19.33;;;;;;;;;;5043140;28;20115;-81
2021/12/23 02:29:38;;;;;;;31.23;19.60;;;;;;;;;;5059989;28;20048;-82
2021/12/23 02:32:04;;;;;;;35.08;19.92;;;;;;;;;;5043134;28;20032;-81
2021/12/23 02:34:30;;;;;;;32.72;18.27;;;;;;;;;;5059446;28;20036;-81
2021/12/23 02:36:57;;;;;;;32.70;19.05;;;;;;;;;;5059069;28;20048;-80
2021/12/23 02:39:23;;;;;;;30.17;19.35;;;;;;;;;;5044181;28;20066;-78
2021/12/23 02:41:49;;;;;;;32.35;19.45;;;;;;;;;;5060807;28;20048;-79
2021/12/23 02:44:15;;;;;;;34.70;20.15;;;;;;;;;;5059483;28;20040;-79
2021/12/23 02:46:41;;;;;;;34.22;19.67;;;;;;;;;;5077873;28;20039;-81
2021/12/23 02:49:07;;;;;;;32.85;19.98;;;;;;;;;;5060310;28;20146;-81
2021/12/23 02:51:33;;;;;;;42.75;20.55;;;;;;;;;;5058476;28;20074;-79
2021/12/23 02:53:59;;;;;;;37.45;21.35;;;;;;;;;;5060537;28;20036;-80
2021/12/23 02:56:25;;;;;;;32.58;19.33;;;;;;;;;;5062750;28;20048;-79
2021/12/23 02:58:51;;;;;;;32.33;20.38;;;;;;;;;;5062261;28;20087;-80
2021/12/23 03:01:18;;;;;;;35.28;21.10;;;;;;;;;;5042570;28;20091;-81
2021/12/23 03:03:44;;;;;;;37.40;21.33;;;;;;;;;;5044201;28;20132;-79
2021/12/23 03:06:10;;;;;;;38.78;21.95;;;;;;;;;;5062741;28;20051;-78
2021/12/23 03:08:40;;;;;;;37.17;20.55;;;;;;;;;;5064807;28;20116;-78
2021/12/23 03:11:07;;;;;;;39.13;20.25;;;;;;;;;;5047503;28;20040;-79
2021/12/23 03:13:33;;;;;;;38.47;20.88;;;;;;;;;;5065538;28;20113;-82
2021/12/23 03:15:59;;;;;;;36.50;20.05;;;;;;;;;;5046191;28;20048;-81
2021/12/23 03:18:25;;;;;;;34.95;19.20;;;;;;;;;;5063539;28;20040;-81
2021/12/23 03:20:51;;;;;;;36.75;20.35;;;;;;;;;;5066901;28;20045;-79
2021/12/23 03:23:17;;;;;;;32.47;18.88;;;;;;;;;;5065039;28;20532;-81
2021/12/23 03:25:43;;;;;;;33.83;19.17;;;;;;;;;;5063287;28;20459;-80
2021/12/23 03:28:09;;;;;;;33.60;20.70;;;;;;;;;;5047444;28;20036;-81
2021/12/23 03:30:35;;;;;;;35.85;20.40;;;;;;;;;;5062884;28;20032;-80
2021/12/23 03:33:01;;;;;;;33.10;20.50;;;;;;;;;;5047419;28;20032;-81
2021/12/23 03:35:27;;;;;;;35.60;20.95;;;;;;;;;;5046293;28;20375;-81
2021/12/23 03:37:53;;;;;;;38.13;20.67;;;;;;;;;;5062971;28;20048;-78
2021/12/23 03:40:19;;;;;;;31.73;20.08;;;;;;;;;;5048355;28;20154;-80
2021/12/23 03:42:45;;;;;;;33.22;19.70;;;;;;;;;;5045922;28;20032;-80
2021/12/23 03:45:12;;;;;;;33.22;19.00;;;;;;;;;;5066559;28;20111;-79
2021/12/23 03:47:38;;;;;;;34.17;20.45;;;;;;;;;;5082920;28;20440;-79
2021/12/23 03:50:04;;;;;;;34.30;19.90;;;;;;;;;;5064892;28;20414;-79
2021/12/23 03:52:30;;;;;;;38.17;20.45;;;;;;;;;;5048215;28;20368;-81
2021/12/23 03:54:56;;;;;;;32.70;19.80;;;;;;;;;;5065761;28;20059;-80
2021/12/23 03:57:22;;;;;;;36.28;20.35;;;;;;;;;;5063839;28;20360;-80
2021/12/23 03:59:48;;;;;;;37.28;20.52;;;;;;;;;;5065498;28;20036;-80
2021/12/23 04:02:14;;;;;;;34.83;20.27;;;;;;;;;;5047844;28;20052;-81
2021/12/23 04:04:40;;;;;;;41.75;22.52;;;;;;;;;;5065825;28;20044;-79
2021/12/23 04:07:06;;;;;;;38.13;21.13;;;;;;;;;;5062921;28;20093;-82
2021/12/23 04:09:32;;;;;;;36.90;21.52;;;;;;;;;;5066206;28;20044;-79
2021/12/23 04:11:58;;;;;;;38.80;22.23;;;;;;;;;;5067393;28;20047;-79
2021/12/23 04:14:24;;;;;;;37.72;22.30;;;;;;;;;;5058412;28;20037;-79
2021/12/23 04:16:50;;;;;;;37.85;22.00;;;;;;;;;;5065309;28;20043;-79
2021/12/23 04:19:16;;;;;;;34.67;21.52;;;;;;;;;;5065565;28;20033;-82
2021/12/23 04:21:43;;;;;;;42.25;22.42;;;;;;;;;;5047139;28;20097;-83
2021/12/23 04:24:09;;;;;;;38.25;22.38;;;;;;;;;;5048446;28;20076;-80
2021/12/23 04:26:35;;;;;;;41.97;23.42;;;;;;;;;;5083274;28;20131;-80
2021/12/23 04:29:01;;;;;;;38.97;22.90;;;;;;;;;;5048448;28;20444;-79
2021/12/23 04:31:27;;;;;;;39.25;23.08;;;;;;;;;;5066039;28;20124;-81
2021/12/23 04:33:54;;;;;;;38.78;23.73;;;;;;;;;;5062635;28;20051;-82
2021/12/23 04:36:20;;;;;;;38.83;24.35;;;;;;;;;;5063424;28;20036;-81
2021/12/23 04:38:46;;;;;;;39.28;24.50;;;;;;;;;;5046386;28;20044;-81
2021/12/23 04:41:12;;;;;;;44.80;26.25;;;;;;;;;;5045980;28;20044;-82
2021/12/23 04:43:38;;;;;;;40.67;24.42;;;;;;;;;;5046565;28;20137;-82
2021/12/23 04:46:04;;;;;;;43.70;23.75;;;;;;;;;;5046127;28;20041;-82
2021/12/23 04:48:31;;;;;;;42.83;25.05;;;;;;;;;;5046064;28;20040;-82
2021/12/23 04:50:57;;;;;;;40.97;25.38;;;;;;;;;;5063292;28;20094;-82
2021/12/23 04:53:23;;;;;;;39.78;23.70;;;;;;;;;;5064181;28;20044;-82
2021/12/23 04:55:49;;;;;;;38.75;23.00;;;;;;;;;;5063636;28;20040;-82
2021/12/23 04:58:15;;;;;;;45.03;23.55;;;;;;;;;;5063482;28;20419;-82
2021/12/23 05:00:42;;;;;;;37.60;23.23;;;;;;;;;;5062645;28;20078;-81
2021/12/23 05:03:08;;;;;;;46.80;24.98;;;;;;;;;;5064240;28;20079;-81
2021/12/23 05:05:35;;;;;;;42.83;24.17;;;;;;;;;;5050287;28;20036;-83
2021/12/23 05:08:01;;;;;;;43.97;25.80;;;;;;;;;;5063936;28;20037;-83
2021/12/23 05:10:27;;;;;;;50.08;25.38;;;;;;;;;;5063643;28;20037;-83
2021/12/23 05:12:53;;;;;;;41.30;24.70;;;;;;;;;;5082167;28;20032;-83
2021/12/23 05:15:19;;;;;;;45.00;26.00;;;;;;;;;;5065975;28;20154;-82
2021/12/23 05:17:45;;;;;;;43.00;25.52;;;;;;;;;;5048013;28;20440;-83
2021/12/23 05:20:12;;;;;;;43.63;25.67;;;;;;;;;;5048935;28;20074;-80
2021/12/23 05:22:38;;;;;;;41.58;25.30;;;;;;;;;;5049452;28;20044;-82
2021/12/23 05:25:05;;;;;;;47.53;26.70;;;;;;;;;;5052334;28;20066;-83
2021/12/23 05:27:31;;;;;;;56.08;29.75;;;;;;;;;;5069110;28;20036;-84
2021/12/23 05:29:57;;;;;;;58.35;32.58;;;;;;;;;;5063465;28;20043;-80
2021/12/23 05:32:23;;;;;;;55.63;32.92;;;;;;;;;;5046637;28;20363;-80
2021/12/23 05:34:49;;;;;;;51.83;28.77;;;;;;;;;;5046405;28;20098;-82
2021/12/23 05:37:15;;;;;;;47.35;27.48;;;;;;;;;;5046088;28;20040;-80
2021/12/23 05:39:41;;;;;;;48.28;25.70;;;;;;;;;;5063794;28;20436;-81
2021/12/23 05:42:07;;;;;;;42.67;26.13;;;;;;;;;;5046707;28;20036;-82
2021/12/23 05:44:33;;;;;;;48.53;26.42;;;;;;;;;;5046325;28;20052;-80
2021/12/23 05:46:59;;;;;;;46.05;26.50;;;;;;;;;;5047440;28;20115;-81
2021/12/23 05:49:25;;;;;;;46.40;25.30;;;;;;;;;;5090828;28;20036;-80
2021/12/23 05:51:51;;;;;;;45.78;24.92;;;;;;;;;;5053408;28;20058;-82
2021/12/23 05:54:17;;;;;;;49.30;26.02;;;;;;;;;;5065437;28;20388;-82
2021/12/23 05:56:43;;;;;;;40.15;24.83;;;;;;;;;;5051267;28;20097;-81
2021/12/23 05:59:09;;;;;;;46.10;25.23;;;;;;;;;;5065184;28;20451;-83
2021/12/23 06:01:35;;;;;;;46.28;24.98;;;;;;;;;;5047103;28;20048;-83
2021/12/23 06:04:01;;;;;;;40.53;23.77;;;;;;;;;;5062688;28;20094;-81
2021/12/23 06:06:27;;;;;;;47.67;24.60;;;;;;;;;;5043639;28;20488;-82
2021/12/23 06:08:53;;;;;;;43.35;25.60;;;;;;;;;;5058539;28;20041;-82
2021/12/23 06:11:19;;;;;;;46.67;25.83;;;;;;;;;;5058938;28;20094;-82
2021/12/23 06:13:45;;;;;;;42.53;25.17;;;;;;;;;;5058634;28;20037;-82
2021/12/23 06:16:11;;;;;;;45.75;25.98;;;;;;;;;;5041695;28;20449;-82
2021/12/23 06:18:37;;;;;;;48.03;26.27;;;;;;;;;;5059153;28;20190;-80
2021/12/23 06:21:03;;;;;;;45.70;26.98;;;;;;;;;;5058933;28;20037;-81
2021/12/23 06:23:30;;;;;;;45.55;25.25;;;;;;;;;;5041523;28;20057;-80
2021/12/23 06:25:56;;;;;;;46.03;25.20;;;;;;;;;;5044643;28;20075;-83
2021/12/23 06:28:22;;;;;;;43.28;24.65;;;;;;;;;;5062549;28;20032;-83
2021/12/23 06:30:48;;;;;;;41.63;24.67;;;;;;;;;;5062130;28;20437;-83
2021/12/23 06:33:14;;;;;;;50.58;25.52;;;;;;;;;;5046715;28;20041;-81
2021/12/23 06:35:40;;;;;;;43.67;26.73;;;;;;;;;;5075963;28;20101;-82
2021/12/23 06:38:07;;;;;;;42.47;23.75;;;;;;;;;;5065276;28;20125;-80
2021/12/23 06:40:33;;;;;;;39.08;23.50;;;;;;;;;;5044620;28;20098;-81
2021/12/23 06:42:59;;;;;;;48.42;25.63;;;;;;;;;;5045636;28;20093;-82
2021/12/23 06:45:25;;;;;;;44.50;26.63;;;;;;;;;;5061895;28;20072;-80
2021/12/23 06:47:51;;;;;;;45.35;26.20;;;;;;;;;;5060391;28;20360;-82
2021/12/23 06:50:18;;;;;;;44.53;25.63;;;;;;;;;;5043201;28;20044;-83
2021/12/23 06:52:45;;;;;;;41.88;26.63;;;;;;;;;;5041801;28;20033;-84
2021/12/23 06:55:11;;;;;;;50.17;25.20;;;;;;;;;;5059198;28;20123;-79
2021/12/23 06:57:38;;;;;;;45.50;25.33;;;;;;;;;;5041967;28;20202;-81
2021/12/23 07:00:08;;;;;;;48.40;27.25;;;;;;;;;;5058441;28;20368;-81
2021/12/23 07:02:39;;;;;;;43.33;26.63;;;;;;;;;;5045091;28;20072;-83
2021/12/23 07:05:06;;;;;;;48.15;27.17;;;;;;;;;;5062093;28;20045;-82
2021/12/23 07:07:40;;;;;;;51.42;27.90;;;;;;;;;;5059597;28;20041;-83
2021/12/23 07:10:06;;;;;;;43.05;25.90;;;;;;;;;;5046078;28;20099;-83
2021/12/23 07:12:32;;;;;;;47.70;27.70;;;;;;;;;;5045835;28;20036;-83
2021/12/23 07:14:58;;;;;;;58.85;30.42;;;;;;;;;;5057739;28;20415;-81
2021/12/23 07:17:24;;;;;;;47.00;28.48;;;;;;;;;;5040752;28;20052;-81
2021/12/23 07:19:50;;;;;;;48.10;27.40;;;;;;;;;;5044407;28;20052;-80
2021/12/23 07:22:16;;;;;;;49.58;27.48;;;;;;;;;;5060082;28;20029;-79
2021/12/23 07:24:42;;;;;;;43.63;28.00;;;;;;;;;;5066477;28;20441;-80
2021/12/23 07:27:09;;;;;;;45.90;27.27;;;;;;;;;;5041066;28;20033;-81
2021/12/23 07:29:35;;;;;;;43.92;26.60;;;;;;;;;;5058385;28;20036;-81
2021/12/23 07:32:03;;;;;;;50.03;28.80;;;;;;;;;;5041319;28;20048;-82
2021/12/23 07:34:29;;;;;;;45.22;26.92;;;;;;;;;;5040844;28;20051;-82
2021/12/23 07:36:55;;;;;;;47.78;27.90;;;;;;;;;;5040747;28;20041;-82
2021/12/23 07:39:21;;;;;;;51.22;26.80;;;;;;;;;;5041934;28;20040;-83
2021/12/23 07:41:48;;;;;;;43.83;25.40;;;;;;;;;;5041369;28;20111;-81
2021/12/23 07:44:20;;;;;;;45.78;26.30;;;;;;;;;;5057496;28;20065;-81
2021/12/23 07:46:46;;;;;;;42.85;25.52;;;;;;;;;;5042572;28;20076;-82
2021/12/23 07:49:12;;;;;;;45.03;25.00;;;;;;;;;;5059104;28;20413;-81
2021/12/23 07:51:39;;;;;;;47.13;25.88;;;;;;;;;;5042313;28;20500;-82
2021/12/23 07:54:05;;;;;;;43.22;25.83;;;;;;;;;;5039842;28;20040;-81
2021/12/23 07:56:31;;;;;;;42.33;25.13;;;;;;;;;;5038954;28;20048;-78
2021/12/23 07:58:56;;;;;;;43.58;26.73;;;;;;;;;;5056334;28;20052;-81
2021/12/23 08:01:22;;;;;;;44.20;25.88;;;;;;;;;;5059514;28;20077;-76
2021/12/23 08:03:48;;;;;;;41.45;24.67;;;;;;;;;;5059005;28;20380;-80
2021/12/23 08:06:15;;;;;;;49.08;26.35;;;;;;;;;;5046509;28;20075;-78
2021/12/23 08:08:41;;;;;;;43.05;24.30;;;;;;;;;;5062189;28;20104;-78
2021/12/23 08:11:07;;;;;;;48.10;25.63;;;;;;;;;;5052565;28;20048;-79
2021/12/23 08:13:33;;;;;;;42.25;23.80;;;;;;;;;;5044701;28;20045;-79
2021/12/23 08:16:00;;;;;;;42.97;25.20;;;;;;;;;;5043813;28;20178;-80
2021/12/23 08:18:26;;;;;;;49.47;25.73;;;;;;;;;;5061443;28;20063;-81
2021/12/23 08:20:52;;;;;;;45.70;25.60;;;;;;;;;;5060844;28;20125;-80
2021/12/23 08:23:18;;;;;;;42.35;25.77;;;;;;;;;;5060713;28;20086;-81
2021/12/23 08:25:45;;;;;;;41.97;24.52;;;;;;;;;;5043738;28;20397;-81
2021/12/23 08:28:11;;;;;;;44.00;23.73;;;;;;;;;;5060682;28;20135;-81
2021/12/23 08:30:39;;;;;;;44.17;24.05;;;;;;;;;;5043476;28;20040;-81
2021/12/23 08:33:05;;;;;;;52.22;25.75;;;;;;;;;;5043192;28;20437;-81
2021/12/23 08:35:31;;;;;;;39.50;24.30;;;;;;;;;;5043330;28;20414;-81
2021/12/23 08:37:57;;;;;;;43.78;23.67;;;;;;;;;;5059888;28;20048;-80
2021/12/23 08:40:24;;;;;;;40.13;22.73;;;;;;;;;;5059355;28;20111;-80
2021/12/23 08:42:50;;;;;;;41.35;24.13;;;;;;;;;;5059656;28;20044;-80
2021/12/23 08:45:16;;;;;;;40.03;22.83;;;;;;;;;;5059531;28;20416;-79
2021/12/23 08:47:42;;;;;;;39.25;22.88;;;;;;;;;;5058347;28;20064;-79
2021/12/23 08:50:09;;;;;;;40.05;23.65;;;;;;;;;;5059519;28;20106;-80
2021/12/23 08:52:35;;;;;;;41.17;23.63;;;;;;;;;;5042338;28;20365;-79
2021/12/23 08:55:01;;;;;;;45.35;23.52;;;;;;;;;;5041641;28;20041;-76
2021/12/23 08:57:27;;;;;;;38.10;23.40;;;;;;;;;;5057720;28;20037;-78
2021/12/23 08:59:53;;;;;;;41.13;24.67;;;;;;;;;;5058237;28;20475;-78
2021/12/23 09:02:19;;;;;;;40.67;23.73;;;;;;;;;;5074378;28;20151;-80
2021/12/23 09:04:45;;;;;;;39.40;23.58;;;;;;;;;;5045178;28;20036;-79
2021/12/23 09:07:12;;;;;;;37.63;22.92;;;;;;;;;;5045885;28;20047;-80
2021/12/23 09:09:38;;;;;;;36.08;22.75;;;;;;;;;;5062235;28;20091;-79
2021/12/23 09:12:05;;;;;;;40.58;23.45;;;;;;;;;;5045410;28;20041;-80
2021/12/23 09:14:31;;;;;;;41.47;23.42;;;;;;;;;;5045726;28;20046;-80
2021/12/23 09:16:57;;;;;;;39.22;22.73;;;;;;;;;;5062371;28;20037;-79
2021/12/23 09:19:23;;;;;;;41.95;23.45;;;;;;;;;;5045042;28;20036;-79
2021/12/23 09:21:49;;;;;;;44.70;23.23;;;;;;;;;;5062340;28;20071;-84
2021/12/23 09:24:15;;;;;;;40.28;23.27;;;;;;;;;;5063471;28;20444;-80
2021/12/23 09:26:50;;;;;;;42.05;23.35;;;;;;;;;;5063284;28;20047;-80
2021/12/23 09:32:42;;;;;;;36.17;22.30;;;;;;;;;;5066491;28;20032;-79
2021/12/23 09:34:49;;;;;;;45.00;22.10;;;;;;;;;;5066506;28;20440;-79
2021/12/23 09:37:15;;;;;;;37.78;21.88;;;;;;;;;;5047300;28;20041;-80
2021/12/23 09:39:42;;;;;;;41.50;22.38;;;;;;;;;;5048321;28;20105;-80
2021/12/23 09:42:08;;;;;;;42.83;22.85;;;;;;;;;;5045031;28;20047;-79
2021/12/23 09:44:34;;;;;;;41.03;21.65;;;;;;;;;;5044809;28;20402;-79
2021/12/23 09:47:02;;;;;;;41.83;22.75;;;;;;;;;;5062163;28;20037;-79
2021/12/23 09:49:29;;;;;;;42.70;23.88;;;;;;;;;;5045761;28;20048;-82
2021/12/23 09:51:55;;;;;;;35.67;20.77;;;;;;;;;;5045970;28;20166;-80
2021/12/23 09:54:21;;;;;;;35.72;21.52;;;;;;;;;;5046688;28;20032;-79
2021/12/23 09:56:47;;;;;;;32.78;20.42;;;;;;;;;;5046891;28;20059;-82
2021/12/23 09:59:13;;;;;;;38.40;21.73;;;;;;;;;;5065617;28;20096;-82
2021/12/23 10:01:39;;;;;;;34.85;20.98;;;;;;;;;;5049516;28;20052;-81
2021/12/23 10:04:05;;;;;;;38.50;21.60;;;;;;;;;;5048909;28;20060;-83
2021/12/23 10:06:32;;;;;;;39.78;20.50;;;;;;;;;;5065845;28;20044;-83
2021/12/23 10:08:59;;;;;;;42.40;23.08;;;;;;;;;;5065337;28;20071;-82
2021/12/23 10:38:15;;;;;;;31.30;20.15;;;;;;;;;;5065812;28;20036;-82
2021/12/23 10:40:46;;;;;;;35.45;19.63;;;;;;;;;;5062574;28;20047;-81
2021/12/23 10:43:41;;;;;;;36.40;19.40;;;;;;;;;;5062743;28;20064;-80
2021/12/23 10:46:09;;;;;;;37.67;19.70;;;;;;;;;;5043210;28;20039;-80
2021/12/23 10:48:43;;;;;;;37.03;19.33;;;;;;;;;;5063714;28;20037;-81
2021/12/23 10:51:15;;;;;;;32.53;19.45;;;;;;;;;;5047832;28;20033;-80
2021/12/23 10:59:18;;;;;;;37.75;18.38;;;;;;;;;;5067451;28;20049;-80
2021/12/23 11:02:04;;;;;;;34.53;19.73;;;;;;;;;;5048422;28;20471;-81
2021/12/23 11:04:35;;;;;;;31.58;18.52;;;;;;;;;;5062789;28;20046;-82
2021/12/23 11:07:19;;;;;;;31.33;18.52;;;;;;;;;;5063500;28;20032;-81
2021/12/23 11:10:04;;;;;;;30.27;18.42;;;;;;;;;;5065604;28;20118;-84
2021/12/23 11:35:49;;;;;;;32.63;18.33;;;;;;;;;;5086803;28;20051;-84
2021/12/23 11:38:27;;;;;;;35.45;18.58;;;;;;;;;;5056242;28;20121;-85
2021/12/23 11:40:56;;;;;;;36.25;19.05;;;;;;;;;;5055475;28;20465;-83
2021/12/23 11:43:32;;;;;;;38.05;18.42;;;;;;;;;;5070637;28;20040;-84
2021/12/23 11:45:59;;;;;;;34.50;19.23;;;;;;;;;;5055399;28;20048;-84
2021/12/23 11:48:25;;;;;;;32.90;18.63;;;;;;;;;;5054000;28;20070;-83
2021/12/23 11:51:06;;;;;;;34.03;19.42;;;;;;;;;;5052989;28;20025;-84
2021/12/23 11:53:32;;;;;;;34.65;19.70;;;;;;;;;;5054424;28;20040;-82
2021/12/23 11:55:59;;;;;;;29.85;18.42;;;;;;;;;;5052942;28;20509;-84
2021/12/23 11:58:25;;;;;;;32.63;18.15;;;;;;;;;;5073120;28;20029;-82
2021/12/23 12:01:07;;;;;;;30.85;19.25;;;;;;;;;;5084706;28;20075;-83
2021/12/23 12:03:51;;;;;;;34.17;19.45;;;;;;;;;;5067253;28;20041;-82
2021/12/23 12:06:18;;;;;;;34.95;19.52;;;;;;;;;;5049659;28;20040;-81
2021/12/23 12:08:44;;;;;;;33.95;19.40;;;;;;;;;;5049477;28;20452;-83
2021/12/23 12:11:14;;;;;;;33.63;19.58;;;;;;;;;;5051071;28;20432;-82
2021/12/23 12:13:40;;;;;;;35.70;19.63;;;;;;;;;;5067639;28;20032;-84
2021/12/23 12:16:23;;;;;;;32.15;19.08;;;;;;;;;;5070750;28;20040;-80
2021/12/23 12:18:49;;;;;;;;;;;;;;;;;;5056394;28;20036;-83
2021/12/23 12:21:22;;;;;;;32.88;18.73;;;;;;;;;;5090451;28;19913;-82
2021/12/23 12:23:48;;;;;;;36.30;19.67;;;;;;;;;;5072336;28;20078;-81
2021/12/23 12:26:25;;;;;;;34.58;20.42;;;;;;;;;;5068305;28;20040;-83
2021/12/23 12:28:53;;;;;;;34.00;19.52;;;;;;;;;;5067782;28;20043;-82
2021/12/23 12:31:20;;;;;;;34.83;20.23;;;;;;;;;;5085113;28;20041;-82
2021/12/23 12:33:53;;;;;;;34.00;20.27;;;;;;;;;;5066617;28;20044;-84
2021/12/23 12:36:19;;;;;;;36.42;20.80;;;;;;;;;;5085119;28;20041;-81
2021/12/23 12:38:55;;;;;;;35.42;20.10;;;;;;;;;;5051170;28;20129;-83
2021/12/23 12:41:35;;;;;;;34.67;19.25;;;;;;;;;;5068518;28;20049;-83
2021/12/23 12:44:25;;;;;;;33.70;20.00;;;;;;;;;;5052175;28;20040;-83
2021/12/23 12:46:58;;;;;;;33.33;20.48;;;;;;;;;;5068646;28;20064;-84
2021/12/23 12:49:37;;;;;;;34.53;20.33;;;;;;;;;;5052809;28;20041;-84
2021/12/23 12:52:08;;;;;;;39.78;20.90;;;;;;;;;;5053432;28;20112;-83
2021/12/23 12:54:37;;;;;;;31.77;18.95;;;;;;;;;;5070331;28;20051;-84
2021/12/23 12:57:04;;;;;;;32.38;19.35;;;;;;;;;;5071000;28;20059;-86
2021/12/23 12:59:30;;;;;;;31.40;19.40;;;;;;;;;;5053764;28;20032;-83
2021/12/23 13:01:57;;;;;;;34.58;19.88;;;;;;;;;;5049465;28;20064;-83
2021/12/23 13:04:24;;;;;;;39.00;20.67;;;;;;;;;;5065988;28;20045;-84
2021/12/23 13:06:51;;;;;;;32.22;19.25;;;;;;;;;;5049778;28;20415;-85
2021/12/23 13:09:21;;;;;;;33.33;20.00;;;;;;;;;;5067342;28;20056;-84
2021/12/23 13:11:48;;;;;;;35.00;19.38;;;;;;;;;;5066897;28;20044;-85
2021/12/23 13:14:19;;;;;;;37.17;19.02;;;;;;;;;;5065784;28;20051;-84
2021/12/23 13:16:52;;;;;;;36.30;19.05;;;;;;;;;;5064820;28;20045;-83
2021/12/23 13:19:18;;;;;;;;;;;;;;;;;;5047510;28;20479;-83
2021/12/23 13:21:56;;;;;;;30.85;18.42;;;;;;;;;;5065310;28;19909;-82
2021/12/23 13:24:22;;;;;;;38.00;20.00;;;;;;;;;;5047568;28;20106;-81
2021/12/23 13:26:49;;;;;;;34.92;18.48;;;;;;;;;;5064069;28;20053;-83
2021/12/23 13:29:15;;;;;;;35.20;18.38;;;;;;;;;;5047544;28;20041;-83
2021/12/23 13:31:41;;;;;;;36.47;20.33;;;;;;;;;;5048910;28;20124;-84
2021/12/23 13:34:12;;;;;;;33.95;18.65;;;;;;;;;;5050089;28;20041;-84
2021/12/23 13:36:41;;;;;;;32.37;19.17;;;;;;;;;;5051135;28;20045;-84
2021/12/23 13:39:10;;;;;;;32.30;19.33;;;;;;;;;;5064037;28;20402;-83
2021/12/23 13:41:38;;;;;;;34.25;19.42;;;;;;;;;;5046578;28;20095;-83
2021/12/23 13:44:24;;;;;;;33.20;19.15;;;;;;;;;;5051638;28;20085;-85
2021/12/23 13:47:00;;;;;;;35.35;19.15;;;;;;;;;;5186561;22;20116;-85
2021/12/23 13:49:38;;;;;;;38.22;19.27;;;;;;;;;;5053071;28;20052;-86
2021/12/23 13:52:05;;;;;;;33.25;19.23;;;;;;;;;;5046179;28;20068;-83
2021/12/23 13:54:33;;;;;;;41.05;19.98;;;;;;;;;;5027093;28;20080;-84
2021/12/23 13:56:59;;;;;;;32.53;19.25;;;;;;;;;;5027764;28;20441;-83
2021/12/23 13:59:27;;;;;;;33.45;19.50;;;;;;;;;;5029660;28;20033;-82
2021/12/23 14:02:02;;;;;;;37.55;20.17;;;;;;;;;;5027601;28;20033;-83
2021/12/23 14:04:28;;;;;;;32.85;19.60;;;;;;;;;;5044327;28;20142;-85
2021/12/23 14:06:54;;;;;;;34.05;19.40;;;;;;;;;;5045789;28;20041;-83
2021/12/23 14:09:31;;;;;;;39.28;20.92;;;;;;;;;;5044202;28;20045;-82
2021/12/23 14:11:57;;;;;;;35.58;20.58;;;;;;;;;;5026886;28;20060;-82
2021/12/23 14:14:23;;;;;;;40.97;20.95;;;;;;;;;;5027375;28;20041;-82
2021/12/23 14:16:49;;;;;;;38.13;20.38;;;;;;;;;;5026605;28;20060;-83
2021/12/23 14:19:39;;;;;;;36.40;20.33;;;;;;;;;;5042898;28;20041;-84
2021/12/23 14:24:51;;;;;;;34.28;19.98;;;;;;;;;;5044881;28;20045;-83
2021/12/23 14:27:17;;;;;;;32.80;19.73;;;;;;;;;;5044213;28;20041;-83
2021/12/23 14:29:45;;;;;;;35.35;20.70;;;;;;;;;;5045815;28;20029;-85
2021/12/23 14:32:13;;;;;;;38.35;20.38;;;;;;;;;;5027995;28;20056;-83
2021/12/23 14:34:39;;;;;;;31.48;19.52;;;;;;;;;;5029153;28;20068;-84
2021/12/23 14:37:08;;;;;;;34.20;20.52;;;;;;;;;;5027007;28;20041;-83
2021/12/23 14:39:36;;;;;;;35.20;21.25;;;;;;;;;;5043360;28;20514;-83
2021/12/23 14:42:03;;;;;;;40.20;21.60;;;;;;;;;;5042739;28;20468;-86
2021/12/23 14:44:34;;;;;;;35.35;21.15;;;;;;;;;;5027357;28;20041;-86
2021/12/23 14:47:08;;;;;;;35.97;21.02;;;;;;;;;;5026967;28;20109;-85
2021/12/23 14:52:20;;;;;;;37.85;22.00;;;;;;;;;;5045583;28;20453;-85
2021/12/23 14:54:48;;;;;;;36.65;22.35;;;;;;;;;;5044153;28;20043;-84
2021/12/23 14:57:15;;;;;;;35.15;20.55;;;;;;;;;;5026128;28;20052;-84
2021/12/23 14:59:48;;;;;;;39.60;21.48;;;;;;;;;;5043439;28;20821;-84
2021/12/23 15:02:15;;;;;;;39.80;21.42;;;;;;;;;;5043268;28;20420;-84
2021/12/23 15:05:00;;;;;;;34.72;21.17;;;;;;;;;;5043214;28;20042;-84
2021/12/23 15:07:26;;;;;;;37.78;22.02;;;;;;;;;;5044414;28;20140;-85
2021/12/23 15:09:58;;;;;;;40.47;23.10;;;;;;;;;;5034341;28;20041;-84
2021/12/23 15:12:25;;;;;;;42.28;22.23;;;;;;;;;;5034452;28;20388;-82
2021/12/23 15:14:55;;;;;;;38.42;22.23;;;;;;;;;;5039507;28;20076;-83
2021/12/23 15:17:30;;;;;;;44.15;23.10;;;;;;;;;;5056582;28;20064;-82
2021/12/23 15:19:57;;;;;;;39.45;22.48;;;;;;;;;;5042079;28;20089;-82
2021/12/23 15:22:25;;;;;;;43.13;24.17;;;;;;;;;;5039665;28;20041;-84
2021/12/23 15:25:05;;;;;;;42.45;23.33;;;;;;;;;;5055021;28;20059;-84
2021/12/23 15:27:31;;;;;;;40.42;22.02;;;;;;;;;;5052710;28;20052;-84
2021/12/23 15:30:01;;;;;;;38.42;22.88;;;;;;;;;;5054776;28;20041;-84